sensor_id;sensor_type;location;lat;lon;timestamp;P1;durP1;ratioP1;P2;durP2;ratioP2
43509;SDS011;29105;57.764;40.952;2022-11-27T00:01:58;23.63;;;9.00;;
43509;SDS011;29105;57.764;40.952;2022-11-27T00:04:24;19.30;;;9.20;;
43509;SDS011;29105;57.764;40.952;2022-11-27T00:06:50;27.63;;;9.27;;
43509;SDS011;29105;57.764;40.952;2022-11-27T00:09:20;17.73;;;7.65;;
43509;SDS011;29105;57.764;40.952;2022-11-27T00:11:45;14.07;;;5.13;;
43509;SDS011;29105;57.764;40.952;2022-11-27T00:14:12;18.48;;;7.30;;
43509;SDS011;29105;57.764;40.952;2022-11-27T00:16:39;20.02;;;7.53;;
43509;SDS011;29105;57.764;40.952;2022-11-27T00:19:05;17.02;;;8.15;;
43509;SDS011;29105;57.764;40.952;2022-11-27T00:21:31;16.08;;;7.38;;
43509;SDS011;29105;57.764;40.952;2022-11-27T00:23:59;16.92;;;7.55;;
43509;SDS011;29105;57.764;40.952;2022-11-27T00:26:27;15.50;;;6.65;;
43509;SDS011;29105;57.764;40.952;2022-11-27T00:28:53;18.20;;;7.40;;
43509;SDS011;29105;57.764;40.952;2022-11-27T00:31:25;12.68;;;6.00;;
43509;SDS011;29105;57.764;40.952;2022-11-27T00:33:55;17.38;;;7.00;;
43509;SDS011;29105;57.764;40.952;2022-11-27T00:36:22;17.95;;;6.30;;
43509;SDS011;29105;57.764;40.952;2022-11-27T00:38:47;14.32;;;5.75;;
43509;SDS011;29105;57.764;40.952;2022-11-27T00:41:14;13.35;;;5.53;;
43509;SDS011;29105;57.764;40.952;2022-11-27T00:43:44;13.05;;;6.88;;
43509;SDS011;29105;57.764;40.952;2022-11-27T00:46:11;15.93;;;4.32;;
43509;SDS011;29105;57.764;40.952;2022-11-27T00:48:38;15.93;;;5.97;;
43509;SDS011;29105;57.764;40.952;2022-11-27T00:51:05;9.02;;;4.10;;
43509;SDS011;29105;57.764;40.952;2022-11-27T00:53:32;12.55;;;5.15;;
43509;SDS011;29105;57.764;40.952;2022-11-27T00:55:58;10.73;;;4.88;;
43509;SDS011;29105;57.764;40.952;2022-11-27T00:58:24;12.98;;;4.85;;
43509;SDS011;29105;57.764;40.952;2022-11-27T01:00:54;9.82;;;4.53;;
43509;SDS011;29105;57.764;40.952;2022-11-27T01:03:20;11.95;;;4.18;;
43509;SDS011;29105;57.764;40.952;2022-11-27T01:05:49;12.43;;;4.45;;
43509;SDS011;29105;57.764;40.952;2022-11-27T01:08:15;9.20;;;4.30;;
43509;SDS011;29105;57.764;40.952;2022-11-27T01:10:51;4.78;;;3.38;;
43509;SDS011;29105;57.764;40.952;2022-11-27T01:13:18;10.43;;;4.28;;
43509;SDS011;29105;57.764;40.952;2022-11-27T01:18:37;9.95;;;5.03;;
43509;SDS011;29105;57.764;40.952;2022-11-27T01:21:12;12.57;;;6.00;;
43509;SDS011;29105;57.764;40.952;2022-11-27T01:23:48;12.02;;;5.60;;
43509;SDS011;29105;57.764;40.952;2022-11-27T01:26:15;17.45;;;7.47;;
43509;SDS011;29105;57.764;40.952;2022-11-27T01:28:42;8.27;;;4.38;;
43509;SDS011;29105;57.764;40.952;2022-11-27T01:31:09;13.68;;;5.15;;
43509;SDS011;29105;57.764;40.952;2022-11-27T01:33:38;18.10;;;6.75;;
43509;SDS011;29105;57.764;40.952;2022-11-27T01:36:05;13.63;;;6.07;;
43509;SDS011;29105;57.764;40.952;2022-11-27T01:38:32;9.18;;;3.80;;
43509;SDS011;29105;57.764;40.952;2022-11-27T01:41:03;15.52;;;5.68;;
43509;SDS011;29105;57.764;40.952;2022-11-27T01:46:25;8.55;;;3.95;;
43509;SDS011;29105;57.764;40.952;2022-11-27T01:49:11;8.38;;;4.25;;
43509;SDS011;29105;57.764;40.952;2022-11-27T01:52:10;16.90;;;6.88;;
43509;SDS011;29105;57.764;40.952;2022-11-27T01:54:39;13.55;;;5.75;;
43509;SDS011;29105;57.764;40.952;2022-11-27T01:57:12;15.05;;;5.95;;
43509;SDS011;29105;57.764;40.952;2022-11-27T01:59:40;2.42;;;1.70;;
43509;SDS011;29105;57.764;40.952;2022-11-27T02:02:06;13.45;;;5.28;;
43509;SDS011;29105;57.764;40.952;2022-11-27T02:04:32;16.30;;;5.68;;
43509;SDS011;29105;57.764;40.952;2022-11-27T02:06:58;8.93;;;3.15;;
43509;SDS011;29105;57.764;40.952;2022-11-27T02:09:24;14.82;;;5.05;;
43509;SDS011;29105;57.764;40.952;2022-11-27T02:11:53;6.50;;;2.72;;
43509;SDS011;29105;57.764;40.952;2022-11-27T02:23:15;12.43;;;3.97;;
43509;SDS011;29105;57.764;40.952;2022-11-27T02:25:56;14.23;;;5.63;;
43509;SDS011;29105;57.764;40.952;2022-11-27T02:31:48;15.32;;;5.95;;
43509;SDS011;29105;57.764;40.952;2022-11-27T02:34:21;14.32;;;5.28;;
43509;SDS011;29105;57.764;40.952;2022-11-27T02:36:59;6.55;;;3.95;;
43509;SDS011;29105;57.764;40.952;2022-11-27T02:39:31;9.55;;;4.53;;
43509;SDS011;29105;57.764;40.952;2022-11-27T02:42:02;9.05;;;4.18;;
43509;SDS011;29105;57.764;40.952;2022-11-27T02:44:33;11.40;;;4.10;;
43509;SDS011;29105;57.764;40.952;2022-11-27T02:47:02;10.15;;;4.28;;
43509;SDS011;29105;57.764;40.952;2022-11-27T02:49:31;9.10;;;5.07;;
43509;SDS011;29105;57.764;40.952;2022-11-27T02:51:58;10.70;;;4.82;;
43509;SDS011;29105;57.764;40.952;2022-11-27T02:54:26;8.23;;;4.63;;
43509;SDS011;29105;57.764;40.952;2022-11-27T02:56:56;9.98;;;4.63;;
43509;SDS011;29105;57.764;40.952;2022-11-27T02:59:24;10.65;;;3.70;;
43509;SDS011;29105;57.764;40.952;2022-11-27T03:01:52;12.90;;;5.68;;
43509;SDS011;29105;57.764;40.952;2022-11-27T03:04:26;14.60;;;5.57;;
43509;SDS011;29105;57.764;40.952;2022-11-27T03:07:00;11.55;;;5.53;;
43509;SDS011;29105;57.764;40.952;2022-11-27T03:09:37;11.63;;;5.22;;
43509;SDS011;29105;57.764;40.952;2022-11-27T03:12:04;8.20;;;3.15;;
43509;SDS011;29105;57.764;40.952;2022-11-27T03:14:32;10.80;;;5.47;;
43509;SDS011;29105;57.764;40.952;2022-11-27T03:22:19;10.95;;;5.60;;
43509;SDS011;29105;57.764;40.952;2022-11-27T03:24:45;6.18;;;2.97;;
43509;SDS011;29105;57.764;40.952;2022-11-27T03:27:12;4.90;;;3.20;;
43509;SDS011;29105;57.764;40.952;2022-11-27T03:29:49;12.93;;;5.60;;
43509;SDS011;29105;57.764;40.952;2022-11-27T03:32:17;4.70;;;3.15;;
43509;SDS011;29105;57.764;40.952;2022-11-27T03:34:42;13.10;;;6.25;;
43509;SDS011;29105;57.764;40.952;2022-11-27T03:37:08;10.60;;;4.85;;
43509;SDS011;29105;57.764;40.952;2022-11-27T03:39:34;13.00;;;2.40;;
43509;SDS011;29105;57.764;40.952;2022-11-27T03:50:17;8.48;;;3.97;;
43509;SDS011;29105;57.764;40.952;2022-11-27T03:55:30;14.57;;;4.32;;
43509;SDS011;29105;57.764;40.952;2022-11-27T03:58:27;14.73;;;6.07;;
43509;SDS011;29105;57.764;40.952;2022-11-27T04:01:01;13.15;;;6.03;;
43509;SDS011;29105;57.764;40.952;2022-11-27T04:03:28;13.93;;;5.55;;
43509;SDS011;29105;57.764;40.952;2022-11-27T04:05:55;16.60;;;6.25;;
43509;SDS011;29105;57.764;40.952;2022-11-27T04:08:21;15.63;;;6.55;;
43509;SDS011;29105;57.764;40.952;2022-11-27T04:10:46;21.75;;;7.05;;
43509;SDS011;29105;57.764;40.952;2022-11-27T04:13:12;24.98;;;9.27;;
43509;SDS011;29105;57.764;40.952;2022-11-27T04:15:38;23.55;;;8.90;;
43509;SDS011;29105;57.764;40.952;2022-11-27T04:18:04;29.30;;;11.00;;
43509;SDS011;29105;57.764;40.952;2022-11-27T04:20:30;26.10;;;10.55;;
43509;SDS011;29105;57.764;40.952;2022-11-27T04:22:56;31.73;;;11.32;;
43509;SDS011;29105;57.764;40.952;2022-11-27T04:25:21;13.82;;;5.82;;
43509;SDS011;29105;57.764;40.952;2022-11-27T04:27:48;25.95;;;10.15;;
43509;SDS011;29105;57.764;40.952;2022-11-27T04:30:13;22.95;;;10.55;;
43509;SDS011;29105;57.764;40.952;2022-11-27T04:32:40;21.58;;;9.68;;
43509;SDS011;29105;57.764;40.952;2022-11-27T04:35:06;25.17;;;10.23;;
43509;SDS011;29105;57.764;40.952;2022-11-27T04:37:31;21.92;;;7.80;;
43509;SDS011;29105;57.764;40.952;2022-11-27T04:39:57;30.65;;;10.02;;
43509;SDS011;29105;57.764;40.952;2022-11-27T04:42:23;35.92;;;13.63;;
43509;SDS011;29105;57.764;40.952;2022-11-27T04:44:48;28.77;;;12.38;;
43509;SDS011;29105;57.764;40.952;2022-11-27T04:47:14;31.50;;;11.30;;
43509;SDS011;29105;57.764;40.952;2022-11-27T04:49:40;25.58;;;11.13;;
43509;SDS011;29105;57.764;40.952;2022-11-27T04:52:06;28.85;;;10.85;;
43509;SDS011;29105;57.764;40.952;2022-11-27T04:54:32;29.67;;;11.10;;
43509;SDS011;29105;57.764;40.952;2022-11-27T04:56:58;18.00;;;7.50;;
43509;SDS011;29105;57.764;40.952;2022-11-27T04:59:23;20.48;;;9.10;;
43509;SDS011;29105;57.764;40.952;2022-11-27T05:01:49;19.52;;;8.60;;
43509;SDS011;29105;57.764;40.952;2022-11-27T05:04:15;27.25;;;9.82;;
43509;SDS011;29105;57.764;40.952;2022-11-27T05:06:40;19.15;;;7.07;;
43509;SDS011;29105;57.764;40.952;2022-11-27T05:09:06;21.67;;;7.05;;
43509;SDS011;29105;57.764;40.952;2022-11-27T05:11:34;13.82;;;5.18;;
43509;SDS011;29105;57.764;40.952;2022-11-27T05:14:00;20.13;;;8.85;;
43509;SDS011;29105;57.764;40.952;2022-11-27T05:16:52;14.65;;;7.03;;
43509;SDS011;29105;57.764;40.952;2022-11-27T05:19:22;29.48;;;12.05;;
43509;SDS011;29105;57.764;40.952;2022-11-27T05:21:49;28.60;;;10.90;;
43509;SDS011;29105;57.764;40.952;2022-11-27T05:24:16;12.65;;;5.90;;
43509;SDS011;29105;57.764;40.952;2022-11-27T05:26:45;22.02;;;10.45;;
43509;SDS011;29105;57.764;40.952;2022-11-27T05:29:11;22.15;;;5.88;;
43509;SDS011;29105;57.764;40.952;2022-11-27T05:31:37;24.63;;;6.00;;
43509;SDS011;29105;57.764;40.952;2022-11-27T05:34:03;9.50;;;4.55;;
43509;SDS011;29105;57.764;40.952;2022-11-27T05:36:30;21.20;;;8.93;;
43509;SDS011;29105;57.764;40.952;2022-11-27T05:38:56;9.93;;;4.20;;
43509;SDS011;29105;57.764;40.952;2022-11-27T05:41:22;18.30;;;6.72;;
43509;SDS011;29105;57.764;40.952;2022-11-27T05:43:48;19.45;;;7.70;;
43509;SDS011;29105;57.764;40.952;2022-11-27T05:46:14;22.52;;;9.63;;
43509;SDS011;29105;57.764;40.952;2022-11-27T05:48:41;20.92;;;8.85;;
43509;SDS011;29105;57.764;40.952;2022-11-27T05:51:07;32.42;;;11.73;;
43509;SDS011;29105;57.764;40.952;2022-11-27T05:53:33;32.90;;;12.38;;
43509;SDS011;29105;57.764;40.952;2022-11-27T05:56:03;26.95;;;11.27;;
43509;SDS011;29105;57.764;40.952;2022-11-27T05:58:30;22.92;;;7.78;;
43509;SDS011;29105;57.764;40.952;2022-11-27T06:00:56;30.02;;;12.88;;
43509;SDS011;29105;57.764;40.952;2022-11-27T06:03:22;30.08;;;12.13;;
43509;SDS011;29105;57.764;40.952;2022-11-27T06:05:48;12.65;;;6.47;;
43509;SDS011;29105;57.764;40.952;2022-11-27T06:08:13;23.63;;;10.35;;
43509;SDS011;29105;57.764;40.952;2022-11-27T06:10:39;14.65;;;8.00;;
43509;SDS011;29105;57.764;40.952;2022-11-27T06:13:05;17.67;;;8.40;;
43509;SDS011;29105;57.764;40.952;2022-11-27T06:15:31;16.20;;;5.65;;
43509;SDS011;29105;57.764;40.952;2022-11-27T06:17:57;12.20;;;4.75;;
43509;SDS011;29105;57.764;40.952;2022-11-27T06:20:23;14.70;;;5.38;;
43509;SDS011;29105;57.764;40.952;2022-11-27T06:22:49;17.40;;;6.60;;
43509;SDS011;29105;57.764;40.952;2022-11-27T06:25:15;15.10;;;6.63;;
43509;SDS011;29105;57.764;40.952;2022-11-27T06:27:41;21.95;;;9.75;;
43509;SDS011;29105;57.764;40.952;2022-11-27T06:30:07;48.85;;;23.10;;
43509;SDS011;29105;57.764;40.952;2022-11-27T06:32:35;57.08;;;27.48;;
43509;SDS011;29105;57.764;40.952;2022-11-27T06:35:02;33.90;;;13.35;;
43509;SDS011;29105;57.764;40.952;2022-11-27T06:37:29;31.52;;;12.38;;
43509;SDS011;29105;57.764;40.952;2022-11-27T06:39:54;36.92;;;13.85;;
43509;SDS011;29105;57.764;40.952;2022-11-27T06:42:20;30.63;;;12.20;;
43509;SDS011;29105;57.764;40.952;2022-11-27T06:44:46;35.80;;;16.00;;
43509;SDS011;29105;57.764;40.952;2022-11-27T06:47:12;35.33;;;16.20;;
43509;SDS011;29105;57.764;40.952;2022-11-27T06:49:38;31.90;;;13.88;;
43509;SDS011;29105;57.764;40.952;2022-11-27T06:52:04;37.58;;;17.40;;
43509;SDS011;29105;57.764;40.952;2022-11-27T06:54:31;42.55;;;15.40;;
43509;SDS011;29105;57.764;40.952;2022-11-27T06:56:57;28.80;;;14.23;;
43509;SDS011;29105;57.764;40.952;2022-11-27T06:59:22;31.48;;;12.43;;
43509;SDS011;29105;57.764;40.952;2022-11-27T07:01:48;31.85;;;12.52;;
43509;SDS011;29105;57.764;40.952;2022-11-27T07:04:14;26.67;;;13.32;;
43509;SDS011;29105;57.764;40.952;2022-11-27T07:06:41;31.70;;;12.45;;
43509;SDS011;29105;57.764;40.952;2022-11-27T07:09:07;29.35;;;11.90;;
43509;SDS011;29105;57.764;40.952;2022-11-27T07:11:34;36.15;;;16.50;;
43509;SDS011;29105;57.764;40.952;2022-11-27T07:14:01;29.45;;;12.32;;
43509;SDS011;29105;57.764;40.952;2022-11-27T07:16:29;26.88;;;11.52;;
43509;SDS011;29105;57.764;40.952;2022-11-27T07:18:58;31.67;;;11.13;;
43509;SDS011;29105;57.764;40.952;2022-11-27T07:21:26;22.45;;;10.13;;
43509;SDS011;29105;57.764;40.952;2022-11-27T07:23:52;26.42;;;10.60;;
43509;SDS011;29105;57.764;40.952;2022-11-27T07:26:22;31.23;;;10.80;;
43509;SDS011;29105;57.764;40.952;2022-11-27T07:28:52;26.77;;;10.77;;
43509;SDS011;29105;57.764;40.952;2022-11-27T07:31:19;26.02;;;9.57;;
43509;SDS011;29105;57.764;40.952;2022-11-27T07:33:46;34.47;;;13.43;;
43509;SDS011;29105;57.764;40.952;2022-11-27T07:36:16;33.17;;;14.10;;
43509;SDS011;29105;57.764;40.952;2022-11-27T07:38:43;39.08;;;14.68;;
43509;SDS011;29105;57.764;40.952;2022-11-27T07:41:10;34.05;;;16.15;;
43509;SDS011;29105;57.764;40.952;2022-11-27T07:43:36;35.03;;;18.38;;
43509;SDS011;29105;57.764;40.952;2022-11-27T07:46:03;34.60;;;15.77;;
43509;SDS011;29105;57.764;40.952;2022-11-27T07:48:32;24.73;;;11.90;;
43509;SDS011;29105;57.764;40.952;2022-11-27T07:50:58;28.15;;;12.13;;
43509;SDS011;29105;57.764;40.952;2022-11-27T07:53:23;29.40;;;13.02;;
43509;SDS011;29105;57.764;40.952;2022-11-27T07:55:49;28.23;;;13.23;;
43509;SDS011;29105;57.764;40.952;2022-11-27T07:58:15;41.05;;;17.83;;
43509;SDS011;29105;57.764;40.952;2022-11-27T08:00:41;29.88;;;12.40;;
43509;SDS011;29105;57.764;40.952;2022-11-27T08:03:08;25.00;;;11.35;;
43509;SDS011;29105;57.764;40.952;2022-11-27T08:05:34;27.23;;;10.75;;
43509;SDS011;29105;57.764;40.952;2022-11-27T08:08:04;22.70;;;10.38;;
43509;SDS011;29105;57.764;40.952;2022-11-27T08:10:30;22.70;;;8.98;;
43509;SDS011;29105;57.764;40.952;2022-11-27T08:12:59;33.88;;;12.23;;
43509;SDS011;29105;57.764;40.952;2022-11-27T08:15:24;29.27;;;12.63;;
43509;SDS011;29105;57.764;40.952;2022-11-27T08:17:50;31.60;;;11.18;;
43509;SDS011;29105;57.764;40.952;2022-11-27T08:20:16;32.72;;;12.80;;
43509;SDS011;29105;57.764;40.952;2022-11-27T08:22:44;31.85;;;14.13;;
43509;SDS011;29105;57.764;40.952;2022-11-27T08:25:09;31.83;;;14.15;;
43509;SDS011;29105;57.764;40.952;2022-11-27T08:27:35;29.05;;;11.98;;
43509;SDS011;29105;57.764;40.952;2022-11-27T08:30:01;35.05;;;12.85;;
43509;SDS011;29105;57.764;40.952;2022-11-27T08:32:29;25.13;;;9.43;;
43509;SDS011;29105;57.764;40.952;2022-11-27T08:34:55;32.20;;;13.63;;
43509;SDS011;29105;57.764;40.952;2022-11-27T08:37:20;25.48;;;9.88;;
43509;SDS011;29105;57.764;40.952;2022-11-27T08:39:46;19.63;;;7.18;;
43509;SDS011;29105;57.764;40.952;2022-11-27T08:42:12;31.95;;;13.38;;
43509;SDS011;29105;57.764;40.952;2022-11-27T08:44:38;37.55;;;14.65;;
43509;SDS011;29105;57.764;40.952;2022-11-27T08:47:04;31.40;;;12.55;;
43509;SDS011;29105;57.764;40.952;2022-11-27T08:49:29;24.95;;;9.80;;
43509;SDS011;29105;57.764;40.952;2022-11-27T08:51:56;24.90;;;10.98;;
43509;SDS011;29105;57.764;40.952;2022-11-27T08:54:21;45.03;;;19.70;;
43509;SDS011;29105;57.764;40.952;2022-11-27T08:56:47;39.30;;;18.55;;
43509;SDS011;29105;57.764;40.952;2022-11-27T08:59:13;19.25;;;8.68;;
43509;SDS011;29105;57.764;40.952;2022-11-27T09:01:38;25.65;;;9.73;;
43509;SDS011;29105;57.764;40.952;2022-11-27T09:04:04;22.92;;;10.82;;
43509;SDS011;29105;57.764;40.952;2022-11-27T09:06:31;20.13;;;9.48;;
43509;SDS011;29105;57.764;40.952;2022-11-27T09:09:01;17.08;;;7.28;;
43509;SDS011;29105;57.764;40.952;2022-11-27T09:11:31;16.53;;;5.73;;
43509;SDS011;29105;57.764;40.952;2022-11-27T09:13:58;10.43;;;4.63;;
43509;SDS011;29105;57.764;40.952;2022-11-27T09:16:25;6.78;;;3.13;;
43509;SDS011;29105;57.764;40.952;2022-11-27T09:18:51;10.00;;;4.75;;
43509;SDS011;29105;57.764;40.952;2022-11-27T09:21:19;7.25;;;3.33;;
43509;SDS011;29105;57.764;40.952;2022-11-27T09:23:46;7.85;;;3.67;;
43509;SDS011;29105;57.764;40.952;2022-11-27T09:26:14;14.25;;;5.50;;
43509;SDS011;29105;57.764;40.952;2022-11-27T09:28:44;15.38;;;3.67;;
43509;SDS011;29105;57.764;40.952;2022-11-27T09:31:14;15.75;;;6.70;;
43509;SDS011;29105;57.764;40.952;2022-11-27T09:33:40;17.58;;;6.57;;
43509;SDS011;29105;57.764;40.952;2022-11-27T09:36:09;8.38;;;3.03;;
43509;SDS011;29105;57.764;40.952;2022-11-27T09:38:36;17.77;;;6.80;;
43509;SDS011;29105;57.764;40.952;2022-11-27T09:43:56;11.15;;;5.45;;
43509;SDS011;29105;57.764;40.952;2022-11-27T09:46:25;11.02;;;3.05;;
43509;SDS011;29105;57.764;40.952;2022-11-27T09:48:57;7.72;;;3.17;;
43509;SDS011;29105;57.764;40.952;2022-11-27T09:51:33;12.82;;;5.38;;
43509;SDS011;29105;57.764;40.952;2022-11-27T09:54:35;7.70;;;3.78;;
43509;SDS011;29105;57.764;40.952;2022-11-27T09:57:08;10.63;;;4.75;;
43509;SDS011;29105;57.764;40.952;2022-11-27T09:59:40;6.83;;;3.97;;
43509;SDS011;29105;57.764;40.952;2022-11-27T10:02:18;16.55;;;6.63;;
43509;SDS011;29105;57.764;40.952;2022-11-27T10:04:54;14.70;;;6.22;;
43509;SDS011;29105;57.764;40.952;2022-11-27T10:07:26;10.38;;;5.90;;
43509;SDS011;29105;57.764;40.952;2022-11-27T10:21:14;11.60;;;3.92;;
43509;SDS011;29105;57.764;40.952;2022-11-27T10:24:12;11.68;;;5.55;;
43509;SDS011;29105;57.764;40.952;2022-11-27T10:26:40;11.23;;;5.53;;
43509;SDS011;29105;57.764;40.952;2022-11-27T10:32:07;21.38;;;10.13;;
43509;SDS011;29105;57.764;40.952;2022-11-27T10:34:42;30.80;;;14.68;;
43509;SDS011;29105;57.764;40.952;2022-11-27T10:45:20;14.32;;;6.47;;
43509;SDS011;29105;57.764;40.952;2022-11-27T10:47:48;11.18;;;5.22;;
43509;SDS011;29105;57.764;40.952;2022-11-27T10:50:15;10.93;;;5.47;;
43509;SDS011;29105;57.764;40.952;2022-11-27T10:55:40;14.73;;;6.65;;
43509;SDS011;29105;57.764;40.952;2022-11-27T11:01:21;38.47;;;15.20;;
43509;SDS011;29105;57.764;40.952;2022-11-27T11:03:48;30.65;;;14.05;;
43509;SDS011;29105;57.764;40.952;2022-11-27T11:06:21;23.48;;;11.93;;
43509;SDS011;29105;57.764;40.952;2022-11-27T11:08:59;12.75;;;6.57;;
43509;SDS011;29105;57.764;40.952;2022-11-27T11:11:26;16.33;;;7.07;;
43509;SDS011;29105;57.764;40.952;2022-11-27T11:13:52;16.05;;;7.18;;
43509;SDS011;29105;57.764;40.952;2022-11-27T11:16:26;24.02;;;11.40;;
43509;SDS011;29105;57.764;40.952;2022-11-27T11:18:55;38.53;;;19.13;;
43509;SDS011;29105;57.764;40.952;2022-11-27T11:21:31;31.67;;;16.05;;
43509;SDS011;29105;57.764;40.952;2022-11-27T11:24:05;21.52;;;9.38;;
43509;SDS011;29105;57.764;40.952;2022-11-27T11:26:53;35.00;;;16.52;;
43509;SDS011;29105;57.764;40.952;2022-11-27T11:32:01;12.43;;;5.85;;
43509;SDS011;29105;57.764;40.952;2022-11-27T11:37:24;9.00;;;3.95;;
43509;SDS011;29105;57.764;40.952;2022-11-27T11:40:04;13.18;;;5.90;;
43509;SDS011;29105;57.764;40.952;2022-11-27T11:46:16;16.27;;;7.05;;
43509;SDS011;29105;57.764;40.952;2022-11-27T11:51:21;18.15;;;8.57;;
43509;SDS011;29105;57.764;40.952;2022-11-27T11:56:37;28.75;;;11.73;;
43509;SDS011;29105;57.764;40.952;2022-11-27T12:01:52;8.73;;;4.20;;
43509;SDS011;29105;57.764;40.952;2022-11-27T12:04:56;19.25;;;9.43;;
43509;SDS011;29105;57.764;40.952;2022-11-27T12:07:44;16.17;;;7.45;;
43509;SDS011;29105;57.764;40.952;2022-11-27T12:18:55;19.73;;;10.23;;
43509;SDS011;29105;57.764;40.952;2022-11-27T12:21:48;23.95;;;12.80;;
43509;SDS011;29105;57.764;40.952;2022-11-27T12:27:26;25.23;;;12.65;;
43509;SDS011;29105;57.764;40.952;2022-11-27T12:35:30;11.70;;;4.45;;
43509;SDS011;29105;57.764;40.952;2022-11-27T12:44:02;25.75;;;11.93;;
43509;SDS011;29105;57.764;40.952;2022-11-27T12:46:55;18.75;;;9.43;;
43509;SDS011;29105;57.764;40.952;2022-11-27T12:52:08;26.45;;;12.10;;
43509;SDS011;29105;57.764;40.952;2022-11-27T12:54:41;14.05;;;5.95;;
43509;SDS011;29105;57.764;40.952;2022-11-27T12:57:22;25.08;;;10.07;;
43509;SDS011;29105;57.764;40.952;2022-11-27T13:00:00;17.83;;;8.77;;
43509;SDS011;29105;57.764;40.952;2022-11-27T13:02:34;12.32;;;6.38;;
43509;SDS011;29105;57.764;40.952;2022-11-27T13:05:05;16.02;;;7.35;;
43509;SDS011;29105;57.764;40.952;2022-11-27T13:10:12;10.88;;;5.13;;
43509;SDS011;29105;57.764;40.952;2022-11-27T13:12:53;15.15;;;6.65;;
43509;SDS011;29105;57.764;40.952;2022-11-27T13:17:57;12.93;;;5.50;;
43509;SDS011;29105;57.764;40.952;2022-11-27T13:22:56;12.32;;;5.80;;
43509;SDS011;29105;57.764;40.952;2022-11-27T13:25:22;20.98;;;9.00;;
43509;SDS011;29105;57.764;40.952;2022-11-27T13:27:48;24.00;;;9.70;;
43509;SDS011;29105;57.764;40.952;2022-11-27T13:30:18;15.77;;;7.90;;
43509;SDS011;29105;57.764;40.952;2022-11-27T13:32:50;19.77;;;9.40;;
43509;SDS011;29105;57.764;40.952;2022-11-27T13:35:22;20.90;;;9.18;;
43509;SDS011;29105;57.764;40.952;2022-11-27T13:37:55;19.98;;;8.65;;
43509;SDS011;29105;57.764;40.952;2022-11-27T13:40:41;18.17;;;8.85;;
43509;SDS011;29105;57.764;40.952;2022-11-27T13:43:18;17.70;;;8.93;;
43509;SDS011;29105;57.764;40.952;2022-11-27T13:45:44;16.13;;;7.45;;
43509;SDS011;29105;57.764;40.952;2022-11-27T13:48:22;17.75;;;7.18;;
43509;SDS011;29105;57.764;40.952;2022-11-27T13:50:51;16.33;;;7.85;;
43509;SDS011;29105;57.764;40.952;2022-11-27T13:53:17;22.40;;;9.48;;
43509;SDS011;29105;57.764;40.952;2022-11-27T13:55:53;21.63;;;8.35;;
43509;SDS011;29105;57.764;40.952;2022-11-27T13:58:34;16.98;;;7.40;;
43509;SDS011;29105;57.764;40.952;2022-11-27T14:01:14;16.10;;;6.88;;
43509;SDS011;29105;57.764;40.952;2022-11-27T14:03:41;15.30;;;5.45;;
43509;SDS011;29105;57.764;40.952;2022-11-27T14:08:54;10.25;;;4.70;;
43509;SDS011;29105;57.764;40.952;2022-11-27T14:11:35;13.30;;;6.43;;
43509;SDS011;29105;57.764;40.952;2022-11-27T14:14:10;14.13;;;6.05;;
43509;SDS011;29105;57.764;40.952;2022-11-27T14:16:38;11.20;;;4.60;;
43509;SDS011;29105;57.764;40.952;2022-11-27T14:21:52;13.18;;;5.70;;
43509;SDS011;29105;57.764;40.952;2022-11-27T14:24:37;9.38;;;5.35;;
43509;SDS011;29105;57.764;40.952;2022-11-27T14:29:46;16.80;;;6.97;;
43509;SDS011;29105;57.764;40.952;2022-11-27T14:32:13;12.18;;;5.75;;
43509;SDS011;29105;57.764;40.952;2022-11-27T14:34:40;16.52;;;6.55;;
43509;SDS011;29105;57.764;40.952;2022-11-27T14:37:06;16.98;;;7.03;;
43509;SDS011;29105;57.764;40.952;2022-11-27T14:39:42;17.55;;;8.23;;
43509;SDS011;29105;57.764;40.952;2022-11-27T14:42:17;18.02;;;7.68;;
43509;SDS011;29105;57.764;40.952;2022-11-27T14:44:45;13.38;;;7.70;;
43509;SDS011;29105;57.764;40.952;2022-11-27T14:47:18;12.52;;;6.15;;
43509;SDS011;29105;57.764;40.952;2022-11-27T14:49:51;14.45;;;7.85;;
43509;SDS011;29105;57.764;40.952;2022-11-27T14:52:18;14.75;;;7.25;;
43509;SDS011;29105;57.764;40.952;2022-11-27T14:54:44;15.43;;;7.95;;
43509;SDS011;29105;57.764;40.952;2022-11-27T14:57:24;15.48;;;7.90;;
43509;SDS011;29105;57.764;40.952;2022-11-27T15:02:54;19.08;;;8.07;;
43509;SDS011;29105;57.764;40.952;2022-11-27T15:05:25;12.70;;;6.72;;
43509;SDS011;29105;57.764;40.952;2022-11-27T15:07:55;19.13;;;6.97;;
43509;SDS011;29105;57.764;40.952;2022-11-27T15:13:00;15.07;;;7.70;;
43509;SDS011;29105;57.764;40.952;2022-11-27T15:15:28;23.35;;;8.32;;
43509;SDS011;29105;57.764;40.952;2022-11-27T15:17:58;16.27;;;5.57;;
43509;SDS011;29105;57.764;40.952;2022-11-27T15:20:27;17.60;;;7.80;;
43509;SDS011;29105;57.764;40.952;2022-11-27T15:23:10;15.93;;;7.10;;
43509;SDS011;29105;57.764;40.952;2022-11-27T15:25:40;18.52;;;7.78;;
43509;SDS011;29105;57.764;40.952;2022-11-27T15:28:27;16.95;;;7.90;;
43509;SDS011;29105;57.764;40.952;2022-11-27T15:30:53;13.88;;;6.50;;
43509;SDS011;29105;57.764;40.952;2022-11-27T15:33:23;18.40;;;8.00;;
43509;SDS011;29105;57.764;40.952;2022-11-27T15:35:51;17.83;;;7.70;;
43509;SDS011;29105;57.764;40.952;2022-11-27T15:38:18;18.60;;;7.38;;
43509;SDS011;29105;57.764;40.952;2022-11-27T15:40:44;20.73;;;9.98;;
43509;SDS011;29105;57.764;40.952;2022-11-27T15:43:21;17.55;;;7.80;;
43509;SDS011;29105;57.764;40.952;2022-11-27T15:45:46;16.65;;;7.07;;
43509;SDS011;29105;57.764;40.952;2022-11-27T15:48:13;15.27;;;7.38;;
43509;SDS011;29105;57.764;40.952;2022-11-27T15:50:40;17.27;;;7.90;;
43509;SDS011;29105;57.764;40.952;2022-11-27T15:53:05;15.70;;;6.80;;
43509;SDS011;29105;57.764;40.952;2022-11-27T15:55:32;12.20;;;6.13;;
43509;SDS011;29105;57.764;40.952;2022-11-27T15:57:57;10.57;;;4.85;;
43509;SDS011;29105;57.764;40.952;2022-11-27T16:00:24;8.48;;;4.68;;
43509;SDS011;29105;57.764;40.952;2022-11-27T16:02:50;12.23;;;6.22;;
43509;SDS011;29105;57.764;40.952;2022-11-27T16:05:17;11.38;;;4.90;;
43509;SDS011;29105;57.764;40.952;2022-11-27T16:07:48;12.70;;;5.72;;
43509;SDS011;29105;57.764;40.952;2022-11-27T16:10:14;9.25;;;4.68;;
43509;SDS011;29105;57.764;40.952;2022-11-27T16:12:41;7.43;;;3.15;;
43509;SDS011;29105;57.764;40.952;2022-11-27T16:15:12;12.97;;;5.97;;
43509;SDS011;29105;57.764;40.952;2022-11-27T16:17:38;11.07;;;5.07;;
43509;SDS011;29105;57.764;40.952;2022-11-27T16:20:04;10.65;;;5.20;;
43509;SDS011;29105;57.764;40.952;2022-11-27T16:22:31;10.10;;;5.18;;
43509;SDS011;29105;57.764;40.952;2022-11-27T16:24:59;12.23;;;5.03;;
43509;SDS011;29105;57.764;40.952;2022-11-27T16:27:25;10.90;;;4.75;;
43509;SDS011;29105;57.764;40.952;2022-11-27T16:29:50;10.88;;;4.53;;
43509;SDS011;29105;57.764;40.952;2022-11-27T16:32:16;8.95;;;3.88;;
43509;SDS011;29105;57.764;40.952;2022-11-27T16:34:42;16.55;;;5.55;;
43509;SDS011;29105;57.764;40.952;2022-11-27T16:37:07;11.70;;;5.53;;
43509;SDS011;29105;57.764;40.952;2022-11-27T16:39:33;9.35;;;4.28;;
43509;SDS011;29105;57.764;40.952;2022-11-27T16:41:59;9.80;;;4.82;;